sensor_id;sensor_type;location;lat;lon;timestamp;pressure;altitude;pressure_sealevel;temperature;humidity
60019;BME280;45870;42.528;26.740;2024-03-23T00:54:10;99889.50;;;8.62;40.30
60019;BME280;45870;42.528;26.740;2024-03-23T00:56:35;99877.88;;;8.68;40.36
60019;BME280;45870;42.528;26.740;2024-03-23T00:59:01;99888.84;;;8.67;40.90
60019;BME280;45870;42.528;26.740;2024-03-23T01:01:26;99885.13;;;8.68;41.24
60019;BME280;45870;42.528;26.740;2024-03-23T01:03:52;99889.38;;;7.93;42.23
60019;BME280;45870;42.528;26.740;2024-03-23T01:06:17;99883.31;;;8.55;41.72
60019;BME280;45870;42.528;26.740;2024-03-23T01:08:42;99872.78;;;8.85;41.24
60019;BME280;45870;42.528;26.740;2024-03-23T01:11:08;99869.66;;;9.13;40.33
60019;BME280;45870;42.528;26.740;2024-03-23T01:13:33;99867.66;;;9.26;40.23
60019;BME280;45870;42.528;26.740;2024-03-23T01:15:58;99873.56;;;9.17;40.02
60019;BME280;45870;42.528;26.740;2024-03-23T01:18:24;99873.75;;;9.22;40.43
60019;BME280;45870;42.528;26.740;2024-03-23T01:20:51;99875.94;;;9.07;40.71
60019;BME280;45870;42.528;26.740;2024-03-23T01:23:16;99874.94;;;9.01;41.14
60019;BME280;45870;42.528;26.740;2024-03-23T01:25:42;99872.78;;;8.53;42.47
60019;BME280;45870;42.528;26.740;2024-03-23T01:28:07;99874.47;;;8.03;43.72
60019;BME280;45870;42.528;26.740;2024-03-23T01:30:33;99867.69;;;8.39;42.86
60019;BME280;45870;42.528;26.740;2024-03-23T01:32:59;99862.38;;;8.64;42.69
60019;BME280;45870;42.528;26.740;2024-03-23T01:35:24;99869.72;;;8.81;41.97
60019;BME280;45870;42.528;26.740;2024-03-23T01:37:49;99862.19;;;8.90;42.65
60019;BME280;45870;42.528;26.740;2024-03-23T01:40:16;99867.97;;;8.93;42.73
60019;BME280;45870;42.528;26.740;2024-03-23T01:42:42;99836.69;;;8.68;42.29
60019;BME280;45870;42.528;26.740;2024-03-23T01:45:08;99862.69;;;9.05;41.79
60019;BME280;45870;42.528;26.740;2024-03-23T01:47:34;99862.69;;;9.05;41.27
60019;BME280;45870;42.528;26.740;2024-03-23T01:50:00;99857.28;;;9.05;41.55
60019;BME280;45870;42.528;26.740;2024-03-23T01:52:26;99857.53;;;9.28;40.90
60019;BME280;45870;42.528;26.740;2024-03-23T01:54:52;99858.91;;;9.56;40.72
60019;BME280;45870;42.528;26.740;2024-03-23T01:57:18;99855.13;;;9.38;40.42
60019;BME280;45870;42.528;26.740;2024-03-23T01:59:43;99857.22;;;9.36;40.88
60019;BME280;45870;42.528;26.740;2024-03-23T02:02:10;99856.75;;;9.21;41.61
60019;BME280;45870;42.528;26.740;2024-03-23T02:04:36;99859.03;;;8.68;42.46
60019;BME280;45870;42.528;26.740;2024-03-23T02:07:01;99856.75;;;8.72;41.14
60019;BME280;45870;42.528;26.740;2024-03-23T02:09:27;99858.84;;;8.25;42.45
60019;BME280;45870;42.528;26.740;2024-03-23T02:11:52;99862.56;;;7.80;44.60
60019;BME280;45870;42.528;26.740;2024-03-23T02:14:17;99860.56;;;8.13;43.19
60019;BME280;45870;42.528;26.740;2024-03-23T02:16:43;99858.16;;;8.43;42.84
60019;BME280;45870;42.528;26.740;2024-03-23T02:19:08;99864.22;;;8.25;41.47
60019;BME280;45870;42.528;26.740;2024-03-23T02:21:33;99871.47;;;8.31;42.56
60019;BME280;45870;42.528;26.740;2024-03-23T02:23:59;99870.66;;;8.93;41.39
60019;BME280;45870;42.528;26.740;2024-03-23T02:26:25;99869.06;;;8.86;40.61
60019;BME280;45870;42.528;26.740;2024-03-23T02:28:50;99871.81;;;8.79;41.19
60019;BME280;45870;42.528;26.740;2024-03-23T02:31:16;99869.28;;;8.53;41.15
60019;BME280;45870;42.528;26.740;2024-03-23T02:33:41;99875.31;;;7.97;42.90
60019;BME280;45870;42.528;26.740;2024-03-23T02:36:07;99858.41;;;8.35;41.26
60019;BME280;45870;42.528;26.740;2024-03-23T02:38:32;99870.50;;;8.57;40.68
60019;BME280;45870;42.528;26.740;2024-03-23T02:41:04;99868.16;;;8.67;40.04
60019;BME280;45870;42.528;26.740;2024-03-23T02:43:29;99874.06;;;8.51;40.19
60019;BME280;45870;42.528;26.740;2024-03-23T02:45:55;99862.72;;;8.42;40.39
60019;BME280;45870;42.528;26.740;2024-03-23T02:48:20;99870.09;;;8.53;40.11
60019;BME280;45870;42.528;26.740;2024-03-23T02:50:46;99869.31;;;8.46;39.99
60019;BME280;45870;42.528;26.740;2024-03-23T02:53:11;99867.28;;;8.42;40.14
60019;BME280;45870;42.528;26.740;2024-03-23T02:55:36;99868.13;;;8.36;39.72
60019;BME280;45870;42.528;26.740;2024-03-23T02:58:02;99866.97;;;8.57;39.58
60019;BME280;45870;42.528;26.740;2024-03-23T03:00:28;99870.16;;;8.47;38.79
60019;BME280;45870;42.528;26.740;2024-03-23T03:02:53;99866.09;;;8.31;39.45
60019;BME280;45870;42.528;26.740;2024-03-23T03:05:19;99862.13;;;8.40;39.24
60019;BME280;45870;42.528;26.740;2024-03-23T03:07:44;99860.06;;;8.36;39.56
60019;BME280;45870;42.528;26.740;2024-03-23T03:10:09;99865.59;;;7.96;41.57
60019;BME280;45870;42.528;26.740;2024-03-23T03:12:36;99858.38;;;8.41;39.85
60019;BME280;45870;42.528;26.740;2024-03-23T03:15:02;99862.81;;;8.29;40.27
60019;BME280;45870;42.528;26.740;2024-03-23T03:17:28;99871.94;;;8.15;40.59
60019;BME280;45870;42.528;26.740;2024-03-23T03:19:53;99864.22;;;8.25;39.71
60019;BME280;45870;42.528;26.740;2024-03-23T03:22:21;99863.94;;;8.46;39.43
60019;BME280;45870;42.528;26.740;2024-03-23T03:24:46;99860.22;;;8.47;40.17
60019;BME280;45870;42.528;26.740;2024-03-23T03:27:12;99855.81;;;8.53;39.27
60019;BME280;45870;42.528;26.740;2024-03-23T03:29:37;99851.47;;;8.14;40.04
60019;BME280;45870;42.528;26.740;2024-03-23T03:32:03;99862.22;;;8.14;40.23
60019;BME280;45870;42.528;26.740;2024-03-23T03:34:28;99850.97;;;8.30;40.22
60019;BME280;45870;42.528;26.740;2024-03-23T03:36:54;99848.09;;;8.32;40.20
60019;BME280;45870;42.528;26.740;2024-03-23T03:39:19;99862.28;;;8.01;39.96
60019;BME280;45870;42.528;26.740;2024-03-23T03:41:45;99857.66;;;8.15;40.15
60019;BME280;45870;42.528;26.740;2024-03-23T03:44:10;99852.66;;;8.25;39.70
60019;BME280;45870;42.528;26.740;2024-03-23T03:46:36;99852.59;;;8.38;40.01
60019;BME280;45870;42.528;26.740;2024-03-23T03:49:01;99851.97;;;8.42;39.29
60019;BME280;45870;42.528;26.740;2024-03-23T03:51:27;99863.84;;;8.28;39.97
60019;BME280;45870;42.528;26.740;2024-03-23T03:53:52;99860.13;;;8.23;40.24
60019;BME280;45870;42.528;26.740;2024-03-23T03:56:17;99857.81;;;8.26;40.14
60019;BME280;45870;42.528;26.740;2024-03-23T03:58:43;99863.94;;;8.46;39.93
60019;BME280;45870;42.528;26.740;2024-03-23T04:01:08;99868.34;;;8.34;40.33
60019;BME280;45870;42.528;26.740;2024-03-23T04:03:34;99870.63;;;8.31;39.95
60019;BME280;45870;42.528;26.740;2024-03-23T04:05:59;99873.63;;;8.03;40.57
60019;BME280;45870;42.528;26.740;2024-03-23T04:08:25;99872.41;;;8.06;40.25
60019;BME280;45870;42.528;26.740;2024-03-23T04:10:50;99858.84;;;8.32;39.32
60019;BME280;45870;42.528;26.740;2024-03-23T04:13:15;99871.03;;;8.28;39.62
60019;BME280;45870;42.528;26.740;2024-03-23T04:15:41;99868.34;;;8.28;40.46
60019;BME280;45870;42.528;26.740;2024-03-23T04:18:07;99866.03;;;8.38;39.94
60019;BME280;45870;42.528;26.740;2024-03-23T04:20:32;99866.84;;;8.45;40.49
60019;BME280;45870;42.528;26.740;2024-03-23T04:23:00;99872.94;;;8.59;39.76
60019;BME280;45870;42.528;26.740;2024-03-23T04:25:26;99880.22;;;8.58;40.51
60019;BME280;45870;42.528;26.740;2024-03-23T04:27:51;99875.84;;;8.64;40.43
60019;BME280;45870;42.528;26.740;2024-03-23T04:30:17;99877.56;;;8.83;40.89
60019;BME280;45870;42.528;26.740;2024-03-23T04:32:43;99871.13;;;9.09;40.29
60019;BME280;45870;42.528;26.740;2024-03-23T04:35:08;99878.38;;;9.08;39.76
60019;BME280;45870;42.528;26.740;2024-03-23T04:37:38;99878.75;;;9.18;39.68
60019;BME280;45870;42.528;26.740;2024-03-23T04:40:06;99882.63;;;9.22;40.41
60019;BME280;45870;42.528;26.740;2024-03-23T04:42:32;99883.13;;;9.37;41.32
60019;BME280;45870;42.528;26.740;2024-03-23T04:44:58;99880.03;;;9.77;40.58
60019;BME280;45870;42.528;26.740;2024-03-23T04:47:23;99883.75;;;9.94;40.19
60019;BME280;45870;42.528;26.740;2024-03-23T04:49:48;99883.59;;;10.07;40.24
60019;BME280;45870;42.528;26.740;2024-03-23T04:52:16;99882.28;;;10.76;39.75
60019;BME280;45870;42.528;26.740;2024-03-23T04:54:41;99893.59;;;9.88;40.50
60019;BME280;45870;42.528;26.740;2024-03-23T04:57:07;99901.59;;;10.61;39.88
60019;BME280;45870;42.528;26.740;2024-03-23T04:59:32;99893.47;;;10.91;39.51
60019;BME280;45870;42.528;26.740;2024-03-23T05:01:58;99893.84;;;11.06;39.52
60019;BME280;45870;42.528;26.740;2024-03-23T05:04:24;99903.13;;;10.98;39.18
60019;BME280;45870;42.528;26.740;2024-03-23T05:06:50;99897.75;;;11.68;37.63
60019;BME280;45870;42.528;26.740;2024-03-23T05:09:15;99894.13;;;11.28;39.22
60019;BME280;45870;42.528;26.740;2024-03-23T05:11:42;99902.44;;;11.03;38.93
60019;BME280;45870;42.528;26.740;2024-03-23T05:14:07;99901.75;;;11.54;39.07
60019;BME280;45870;42.528;26.740;2024-03-23T05:16:33;99897.75;;;11.68;38.49
60019;BME280;45870;42.528;26.740;2024-03-23T05:18:58;99901.06;;;11.93;38.55
60019;BME280;45870;42.528;26.740;2024-03-23T05:21:23;99897.34;;;11.71;38.90
60019;BME280;45870;42.528;26.740;2024-03-23T05:23:49;99895.09;;;11.80;39.29
60019;BME280;45870;42.528;26.740;2024-03-23T05:26:14;99898.84;;;11.79;39.44
60019;BME280;45870;42.528;26.740;2024-03-23T05:28:40;99899.41;;;12.44;39.47
60019;BME280;45870;42.528;26.740;2024-03-23T05:31:05;99895.50;;;12.80;38.18
60019;BME280;45870;42.528;26.740;2024-03-23T05:33:31;99888.56;;;13.50;37.67
60019;BME280;45870;42.528;26.740;2024-03-23T05:35:57;99897.22;;;13.86;37.37
60019;BME280;45870;42.528;26.740;2024-03-23T05:38:22;99892.81;;;14.01;37.39
60019;BME280;45870;42.528;26.740;2024-03-23T05:40:55;99893.56;;;13.97;37.12
60019;BME280;45870;42.528;26.740;2024-03-23T05:43:21;99898.38;;;14.55;37.41
60019;BME280;45870;42.528;26.740;2024-03-23T05:45:52;99897.13;;;15.21;36.47
60019;BME280;45870;42.528;26.740;2024-03-23T05:48:18;99889.66;;;15.07;35.99
60019;BME280;45870;42.528;26.740;2024-03-23T05:50:43;99892.13;;;15.45;35.79
60019;BME280;45870;42.528;26.740;2024-03-23T05:53:08;99895.56;;;15.62;35.40
60019;BME280;45870;42.528;26.740;2024-03-23T05:55:34;99893.03;;;14.87;36.03
60019;BME280;45870;42.528;26.740;2024-03-23T05:57:59;99890.22;;;13.35;38.72
60019;BME280;45870;42.528;26.740;2024-03-23T06:00:25;99902.34;;;12.42;40.61
60019;BME280;45870;42.528;26.740;2024-03-23T06:02:51;99903.44;;;11.67;41.71
60019;BME280;45870;42.528;26.740;2024-03-23T06:05:17;99902.53;;;12.81;40.37
60019;BME280;45870;42.528;26.740;2024-03-23T06:07:42;99896.22;;;12.75;39.50
60019;BME280;45870;42.528;26.740;2024-03-23T06:10:07;99895.53;;;15.25;35.11
60019;BME280;45870;42.528;26.740;2024-03-23T06:12:33;99901.50;;;16.58;32.56
60019;BME280;45870;42.528;26.740;2024-03-23T06:14:59;99896.16;;;17.64;31.87
60019;BME280;45870;42.528;26.740;2024-03-23T06:17:25;99898.13;;;19.65;29.00
60019;BME280;45870;42.528;26.740;2024-03-23T06:19:50;99909.81;;;18.59;29.63
60019;BME280;45870;42.528;26.740;2024-03-23T06:22:16;99908.38;;;16.76;32.40
60019;BME280;45870;42.528;26.740;2024-03-23T06:24:41;99895.22;;;18.14;31.00
60019;BME280;45870;42.528;26.740;2024-03-23T06:27:06;99898.63;;;17.56;31.40
60019;BME280;45870;42.528;26.740;2024-03-23T06:29:32;99899.75;;;16.32;32.25
60019;BME280;45870;42.528;26.740;2024-03-23T06:31:57;99890.72;;;14.74;35.84
60019;BME280;45870;42.528;26.740;2024-03-23T06:34:23;99886.03;;;16.74;33.55
60019;BME280;45870;42.528;26.740;2024-03-23T06:36:48;99892.66;;;14.52;36.46
60019;BME280;45870;42.528;26.740;2024-03-23T06:39:14;99886.81;;;15.97;35.83
60019;BME280;45870;42.528;26.740;2024-03-23T06:41:41;99889.00;;;14.68;38.56
60019;BME280;45870;42.528;26.740;2024-03-23T06:44:07;99886.28;;;14.68;37.40
60019;BME280;45870;42.528;26.740;2024-03-23T06:46:32;99879.22;;;14.93;37.42
60019;BME280;45870;42.528;26.740;2024-03-23T06:48:57;99887.34;;;15.99;36.70
60019;BME280;45870;42.528;26.740;2024-03-23T06:51:23;99886.47;;;15.15;38.93
60019;BME280;45870;42.528;26.740;2024-03-23T06:53:49;99885.09;;;16.43;36.75
60019;BME280;45870;42.528;26.740;2024-03-23T06:56:15;99886.38;;;18.37;32.60
60019;BME280;45870;42.528;26.740;2024-03-23T06:58:40;99885.28;;;18.43;32.48
60019;BME280;45870;42.528;26.740;2024-03-23T07:01:06;99884.69;;;16.91;36.51
60019;BME280;45870;42.528;26.740;2024-03-23T07:03:32;99895.72;;;18.85;32.43
60019;BME280;45870;42.528;26.740;2024-03-23T07:05:57;99893.53;;;18.87;32.88
60019;BME280;45870;42.528;26.740;2024-03-23T07:08:23;99897.81;;;19.95;30.63
60019;BME280;45870;42.528;26.740;2024-03-23T07:10:48;99885.47;;;16.72;35.60
60019;BME280;45870;42.528;26.740;2024-03-23T07:13:14;99879.16;;;15.52;39.34
60019;BME280;45870;42.528;26.740;2024-03-23T07:15:40;99879.75;;;16.73;36.33
60019;BME280;45870;42.528;26.740;2024-03-23T07:18:05;99879.75;;;18.98;32.33
60019;BME280;45870;42.528;26.740;2024-03-23T07:20:31;99875.44;;;20.12;29.90
60019;BME280;45870;42.528;26.740;2024-03-23T07:22:56;99875.06;;;19.71;31.23
60019;BME280;45870;42.528;26.740;2024-03-23T07:25:22;99875.50;;;19.20;33.40
60019;BME280;45870;42.528;26.740;2024-03-23T07:27:48;99868.09;;;22.30;27.75
60019;BME280;45870;42.528;26.740;2024-03-23T07:30:14;99874.00;;;21.18;29.12
60019;BME280;45870;42.528;26.740;2024-03-23T07:32:39;99858.38;;;16.35;39.11
60019;BME280;45870;42.528;26.740;2024-03-23T07:35:05;99859.47;;;16.39;37.76
60019;BME280;45870;42.528;26.740;2024-03-23T07:37:30;99852.78;;;17.22;35.13
60019;BME280;45870;42.528;26.740;2024-03-23T07:39:56;99845.31;;;17.88;34.83
60019;BME280;45870;42.528;26.740;2024-03-23T07:42:22;99852.03;;;18.21;34.31
60019;BME280;45870;42.528;26.740;2024-03-23T07:44:48;99842.97;;;17.11;36.92
60019;BME280;45870;42.528;26.740;2024-03-23T07:47:13;99848.91;;;18.53;35.00
60019;BME280;45870;42.528;26.740;2024-03-23T07:49:39;99842.72;;;17.03;36.49
60019;BME280;45870;42.528;26.740;2024-03-23T07:52:05;99843.38;;;18.04;35.08
60019;BME280;45870;42.528;26.740;2024-03-23T07:54:30;99842.84;;;17.92;34.75
60019;BME280;45870;42.528;26.740;2024-03-23T07:56:55;99849.13;;;17.87;34.99
60019;BME280;45870;42.528;26.740;2024-03-23T07:59:21;99837.41;;;18.56;33.75
60019;BME280;45870;42.528;26.740;2024-03-23T08:01:46;99845.13;;;17.60;36.60
60019;BME280;45870;42.528;26.740;2024-03-23T08:04:12;99839.59;;;17.85;34.48
60019;BME280;45870;42.528;26.740;2024-03-23T08:06:37;99841.59;;;19.16;33.71
60019;BME280;45870;42.528;26.740;2024-03-23T08:09:03;99841.06;;;18.31;33.11
60019;BME280;45870;42.528;26.740;2024-03-23T08:11:29;99838.53;;;17.76;34.89
60019;BME280;45870;42.528;26.740;2024-03-23T08:13:55;99845.88;;;20.09;31.62
60019;BME280;45870;42.528;26.740;2024-03-23T08:16:21;99837.09;;;19.30;32.45
60019;BME280;45870;42.528;26.740;2024-03-23T08:18:46;99837.34;;;20.10;31.25
60019;BME280;45870;42.528;26.740;2024-03-23T08:21:12;99832.13;;;19.04;32.70
60019;BME280;45870;42.528;26.740;2024-03-23T08:23:37;99831.03;;;19.05;33.71
60019;BME280;45870;42.528;26.740;2024-03-23T08:26:04;99835.13;;;19.41;31.31
60019;BME280;45870;42.528;26.740;2024-03-23T08:28:29;99841.66;;;20.16;30.44
60019;BME280;45870;42.528;26.740;2024-03-23T08:30:55;99837.34;;;19.00;33.02
60019;BME280;45870;42.528;26.740;2024-03-23T08:33:20;99833.31;;;20.03;29.78
60019;BME280;45870;42.528;26.740;2024-03-23T08:35:59;99838.56;;;20.65;28.51
60019;BME280;45870;42.528;26.740;2024-03-23T08:38:25;99832.31;;;20.17;28.24
60019;BME280;45870;42.528;26.740;2024-03-23T08:41:06;99829.44;;;20.32;29.21
60019;BME280;45870;42.528;26.740;2024-03-23T08:43:33;99828.63;;;20.51;29.60
60019;BME280;45870;42.528;26.740;2024-03-23T08:48:40;99826.63;;;21.26;28.13
60019;BME280;45870;42.528;26.740;2024-03-23T08:51:08;99828.25;;;20.38;28.55
60019;BME280;45870;42.528;26.740;2024-03-23T08:53:35;99821.28;;;20.04;29.61
60019;BME280;45870;42.528;26.740;2024-03-23T08:56:01;99821.78;;;19.29;31.05
60019;BME280;45870;42.528;26.740;2024-03-23T08:58:28;99811.72;;;18.91;30.52
60019;BME280;45870;42.528;26.740;2024-03-23T09:00:54;99800.63;;;17.69;32.03
60019;BME280;45870;42.528;26.740;2024-03-23T09:03:22;99807.53;;;17.01;34.19
60019;BME280;45870;42.528;26.740;2024-03-23T09:05:49;99809.41;;;18.25;31.74
60019;BME280;45870;42.528;26.740;2024-03-23T09:08:14;99807.56;;;18.99;32.04
60019;BME280;45870;42.528;26.740;2024-03-23T09:10:40;99800.50;;;18.54;32.16
60019;BME280;45870;42.528;26.740;2024-03-23T09:13:05;99798.41;;;20.37;29.70
60019;BME280;45870;42.528;26.740;2024-03-23T09:15:32;99791.91;;;19.33;28.84
60019;BME280;45870;42.528;26.740;2024-03-23T09:18:01;99786.66;;;19.41;30.43
60019;BME280;45870;42.528;26.740;2024-03-23T09:20:27;99779.63;;;18.68;31.01
60019;BME280;45870;42.528;26.740;2024-03-23T09:22:52;99778.56;;;18.64;31.85
60019;BME280;45870;42.528;26.740;2024-03-23T09:25:17;99779.88;;;19.34;29.99
60019;BME280;45870;42.528;26.740;2024-03-23T09:27:45;99778.81;;;19.59;29.13
60019;BME280;45870;42.528;26.740;2024-03-23T09:30:11;99772.19;;;20.82;28.07
60019;BME280;45870;42.528;26.740;2024-03-23T09:32:36;99762.44;;;20.38;29.41
60019;BME280;45870;42.528;26.740;2024-03-23T09:35:02;99774.28;;;19.15;31.05
60019;BME280;45870;42.528;26.740;2024-03-23T09:37:27;99769.72;;;18.77;30.71
60019;BME280;45870;42.528;26.740;2024-03-23T09:39:53;99758.28;;;18.70;31.62
60019;BME280;45870;42.528;26.740;2024-03-23T09:42:18;99765.25;;;17.98;34.04
60019;BME280;45870;42.528;26.740;2024-03-23T09:44:44;99767.34;;;18.21;32.60
60019;BME280;45870;42.528;26.740;2024-03-23T09:47:09;99753.78;;;20.50;29.62
60019;BME280;45870;42.528;26.740;2024-03-23T09:49:35;99746.41;;;19.13;32.81
60019;BME280;45870;42.528;26.740;2024-03-23T09:52:03;99746.81;;;20.58;28.80
60019;BME280;45870;42.528;26.740;2024-03-23T09:54:29;99743.91;;;21.60;26.94
60019;BME280;45870;42.528;26.740;2024-03-23T09:56:55;99741.59;;;18.32;33.80
60019;BME280;45870;42.528;26.740;2024-03-23T09:59:20;99743.13;;;19.11;30.90
60019;BME280;45870;42.528;26.740;2024-03-23T10:01:45;99738.44;;;19.88;29.84
60019;BME280;45870;42.528;26.740;2024-03-23T10:04:11;99732.28;;;19.30;30.81
60019;BME280;45870;42.528;26.740;2024-03-23T10:06:38;99724.50;;;18.56;31.91
60019;BME280;45870;42.528;26.740;2024-03-23T10:09:03;99722.66;;;18.41;32.41
60019;BME280;45870;42.528;26.740;2024-03-23T10:11:42;99712.66;;;18.94;31.58
60019;BME280;45870;42.528;26.740;2024-03-23T10:14:09;99717.38;;;20.44;27.90
60019;BME280;45870;42.528;26.740;2024-03-23T10:16:34;99716.09;;;20.00;29.01
60019;BME280;45870;42.528;26.740;2024-03-23T10:19:00;99711.19;;;20.71;28.70
60019;BME280;45870;42.528;26.740;2024-03-23T10:21:25;99701.34;;;21.57;27.32
60019;BME280;45870;42.528;26.740;2024-03-23T10:23:51;99697.69;;;20.42;29.19
60019;BME280;45870;42.528;26.740;2024-03-23T10:26:20;99700.84;;;21.69;27.14
60019;BME280;45870;42.528;26.740;2024-03-23T10:28:57;99697.06;;;19.89;29.12
60019;BME280;45870;42.528;26.740;2024-03-23T10:31:25;99689.50;;;20.56;28.12
60019;BME280;45870;42.528;26.740;2024-03-23T10:33:51;99689.78;;;19.37;28.25
60019;BME280;45870;42.528;26.740;2024-03-23T10:36:19;99685.47;;;21.81;26.03
60019;BME280;45870;42.528;26.740;2024-03-23T10:38:45;99678.72;;;19.90;28.57
60019;BME280;45870;42.528;26.740;2024-03-23T10:41:12;99671.19;;;20.52;28.34
60019;BME280;45870;42.528;26.740;2024-03-23T10:43:37;99658.97;;;19.27;28.52
60019;BME280;45870;42.528;26.740;2024-03-23T10:46:04;99658.75;;;19.23;30.10
60019;BME280;45870;42.528;26.740;2024-03-23T10:48:32;99657.00;;;19.56;29.66
60019;BME280;45870;42.528;26.740;2024-03-23T10:50:57;99649.44;;;20.87;27.52
60019;BME280;45870;42.528;26.740;2024-03-23T10:53:25;99643.22;;;20.55;29.71
60019;BME280;45870;42.528;26.740;2024-03-23T10:55:50;99641.34;;;21.64;26.61
60019;BME280;45870;42.528;26.740;2024-03-23T10:58:17;99643.44;;;21.18;26.26
60019;BME280;45870;42.528;26.740;2024-03-23T11:00:43;99635.63;;;22.77;23.90
60019;BME280;45870;42.528;26.740;2024-03-23T11:05:52;99627.78;;;22.39;25.10
60019;BME280;45870;42.528;26.740;2024-03-23T11:08:31;99629.13;;;20.75;28.13
60019;BME280;45870;42.528;26.740;2024-03-23T11:11:13;99621.16;;;21.19;27.94
60019;BME280;45870;42.528;26.740;2024-03-23T11:13:38;99623.97;;;22.05;26.42
60019;BME280;45870;42.528;26.740;2024-03-23T11:19:33;99613.09;;;21.36;27.10
60019;BME280;45870;42.528;26.740;2024-03-23T11:21:58;99605.91;;;23.35;24.94
60019;BME280;45870;42.528;26.740;2024-03-23T11:24:24;99602.13;;;21.36;25.01
60019;BME280;45870;42.528;26.740;2024-03-23T11:26:49;99600.19;;;23.15;23.69
60019;BME280;45870;42.528;26.740;2024-03-23T11:29:15;99587.19;;;21.15;26.53
60019;BME280;45870;42.528;26.740;2024-03-23T11:31:47;99582.97;;;22.17;25.13
60019;BME280;45870;42.528;26.740;2024-03-23T11:34:13;99587.63;;;23.39;24.69
60019;BME280;45870;42.528;26.740;2024-03-23T11:36:40;99575.41;;;23.23;23.92
60019;BME280;45870;42.528;26.740;2024-03-23T11:39:15;99578.44;;;23.05;23.22
60019;BME280;45870;42.528;26.740;2024-03-23T11:41:46;99564.81;;;24.89;23.22
60019;BME280;45870;42.528;26.740;2024-03-23T11:44:27;99565.44;;;22.57;25.59
60019;BME280;45870;42.528;26.740;2024-03-23T11:46:52;99558.56;;;23.16;24.23
60019;BME280;45870;42.528;26.740;2024-03-23T11:49:27;99555.66;;;24.50;23.55
60019;BME280;45870;42.528;26.740;2024-03-23T11:51:53;99543.56;;;24.34;21.54
60019;BME280;45870;42.528;26.740;2024-03-23T11:54:25;99548.94;;;24.77;20.95
60019;BME280;45870;42.528;26.740;2024-03-23T11:56:58;99542.34;;;25.28;19.35
60019;BME280;45870;42.528;26.740;2024-03-23T11:59:30;99543.56;;;23.39;23.12
60019;BME280;45870;42.528;26.740;2024-03-23T12:01:55;99538.19;;;22.69;24.88
60019;BME280;45870;42.528;26.740;2024-03-23T12:04:25;99531.59;;;22.57;23.96
60019;BME280;45870;42.528;26.740;2024-03-23T12:06:51;99525.69;;;20.89;26.46
60019;BME280;45870;42.528;26.740;2024-03-23T12:09:16;99529.50;;;22.93;23.20
60019;BME280;45870;42.528;26.740;2024-03-23T12:11:41;99510.78;;;21.89;24.63
60019;BME280;45870;42.528;26.740;2024-03-23T12:14:07;99513.31;;;22.21;25.17
60019;BME280;45870;42.528;26.740;2024-03-23T12:16:32;99506.13;;;24.16;22.45
60019;BME280;45870;42.528;26.740;2024-03-23T12:18:58;99498.72;;;25.63;19.79
60019;BME280;45870;42.528;26.740;2024-03-23T12:21:29;99496.53;;;23.96;22.59
60019;BME280;45870;42.528;26.740;2024-03-23T12:23:55;99488.97;;;24.48;21.54
60019;BME280;45870;42.528;26.740;2024-03-23T12:26:20;99488.25;;;24.60;22.31
60019;BME280;45870;42.528;26.740;2024-03-23T12:28:46;99491.19;;;25.01;21.29
60019;BME280;45870;42.528;26.740;2024-03-23T12:31:11;99479.34;;;23.13;22.00
60019;BME280;45870;42.528;26.740;2024-03-23T12:33:36;99477.28;;;23.62;21.42
60019;BME280;45870;42.528;26.740;2024-03-23T12:36:02;99483.78;;;26.42;18.98
60019;BME280;45870;42.528;26.740;2024-03-23T12:38:28;99474.72;;;23.48;22.83
60019;BME280;45870;42.528;26.740;2024-03-23T12:40:53;99475.84;;;23.47;21.56
60019;BME280;45870;42.528;26.740;2024-03-23T12:43:18;99469.13;;;23.05;22.20
60019;BME280;45870;42.528;26.740;2024-03-23T12:45:47;99453.03;;;24.10;21.16
60019;BME280;45870;42.528;26.740;2024-03-23T12:48:12;99452.50;;;23.45;21.75
60019;BME280;45870;42.528;26.740;2024-03-23T12:50:38;99454.38;;;23.01;23.35
60019;BME280;45870;42.528;26.740;2024-03-23T12:53:03;99455.38;;;23.82;20.89
60019;BME280;45870;42.528;26.740;2024-03-23T12:55:29;99457.28;;;21.86;23.18
60019;BME280;45870;42.528;26.740;2024-03-23T12:57:54;99453.22;;;24.14;20.92
60019;BME280;45870;42.528;26.740;2024-03-23T13:00:20;99443.25;;;23.15;22.02
60019;BME280;45870;42.528;26.740;2024-03-23T13:02:45;99451.88;;;24.96;18.95
60019;BME280;45870;42.528;26.740;2024-03-23T13:05:10;99445.63;;;25.69;18.59
60019;BME280;45870;42.528;26.740;2024-03-23T13:07:36;99443.69;;;24.78;19.73
60019;BME280;45870;42.528;26.740;2024-03-23T13:10:03;99443.00;;;29.58;15.38
60019;BME280;45870;42.528;26.740;2024-03-23T13:12:29;99442.38;;;30.98;14.56
60019;BME280;45870;42.528;26.740;2024-03-23T13:14:54;99449.41;;;31.18;14.19
60019;BME280;45870;42.528;26.740;2024-03-23T13:17:19;99447.97;;;29.30;16.34
60019;BME280;45870;42.528;26.740;2024-03-23T13:19:45;99441.53;;;30.26;15.57
60019;BME280;45870;42.528;26.740;2024-03-23T13:22:10;99440.47;;;30.34;14.92
60019;BME280;45870;42.528;26.740;2024-03-23T13:24:36;99424.84;;;30.48;14.43
60019;BME280;45870;42.528;26.740;2024-03-23T13:27:02;99423.47;;;27.91;16.61
60019;BME280;45870;42.528;26.740;2024-03-23T13:29:27;99420.69;;;25.90;16.76
60019;BME280;45870;42.528;26.740;2024-03-23T13:31:53;99421.75;;;27.71;15.90
60019;BME280;45870;42.528;26.740;2024-03-23T13:34:18;99411.22;;;26.97;16.19
60019;BME280;45870;42.528;26.740;2024-03-23T13:36:45;99410.63;;;27.43;16.65
60019;BME280;45870;42.528;26.740;2024-03-23T13:39:12;99409.50;;;27.88;15.19
60019;BME280;45870;42.528;26.740;2024-03-23T13:41:41;99415.69;;;29.83;14.55
60019;BME280;45870;42.528;26.740;2024-03-23T13:44:07;99409.66;;;31.88;13.51
60019;BME280;45870;42.528;26.740;2024-03-23T13:46:33;99407.09;;;27.86;16.29
60019;BME280;45870;42.528;26.740;2024-03-23T13:48:58;99396.56;;;29.24;14.73